createdAt,value
2022-12-23T00:00:55.588Z,15.7
2022-12-23T00:01:58.141Z,15.8
2022-12-23T00:03:01.497Z,15.7
2022-12-23T00:04:05.266Z,15.7
2022-12-23T00:05:08.044Z,15.6
2022-12-23T00:06:10.318Z,15.7
2022-12-23T00:07:12.827Z,15.8
2022-12-23T00:08:14.803Z,15.8
2022-12-23T00:09:17.036Z,15.8
2022-12-23T00:10:19.326Z,15.8
2022-12-23T00:11:21.326Z,15.8
2022-12-23T00:12:23.265Z,15.8
2022-12-23T00:13:25.847Z,15.8
2022-12-23T00:14:28.167Z,15.8
2022-12-23T00:15:30.743Z,15.8
2022-12-23T00:16:33.360Z,15.7
2022-12-23T00:17:35.877Z,15.8
2022-12-23T00:18:38.110Z,15.7
2022-12-23T00:19:40.618Z,15.8
2022-12-23T00:20:43.280Z,15.8
2022-12-23T00:21:45.256Z,15.9
2022-12-23T00:22:47.485Z,15.8
2022-12-23T00:23:50.022Z,15.9
2022-12-23T00:24:52.597Z,15.9
2022-12-23T00:25:55.104Z,15.8
2022-12-23T00:26:57.347Z,15.8
2022-12-23T00:27:59.863Z,15.9
2022-12-23T00:29:02.742Z,15.8
2022-12-23T00:30:05.393Z,15.8
2022-12-23T00:31:07.961Z,15.8
2022-12-23T00:32:10.625Z,15.9
2022-12-23T00:33:13.594Z,15.8
2022-12-23T00:34:15.830Z,15.9
2022-12-23T00:35:18.346Z,15.8
2022-12-23T00:36:21.123Z,15.8
2022-12-23T00:37:23.457Z,15.8
2022-12-23T00:38:25.954Z,15.9
2022-12-23T00:39:28.177Z,15.8
2022-12-23T00:40:30.763Z,15.9
2022-12-23T00:41:32.726Z,15.9
2022-12-23T00:42:34.700Z,15.9
2022-12-23T00:43:37.274Z,15.8
2022-12-23T00:44:39.981Z,15.9
2022-12-23T00:45:42.584Z,15.9
2022-12-23T00:46:45.073Z,16
2022-12-23T00:47:47.617Z,15.9
2022-12-23T00:48:49.849Z,15.9
2022-12-23T00:49:52.091Z,15.8
2022-12-23T00:50:54.601Z,15.9
2022-12-23T00:51:56.884Z,15.9
2022-12-23T00:52:59.432Z,15.9
2022-12-23T00:54:01.950Z,15.8
2022-12-23T00:55:04.176Z,16
2022-12-23T00:56:06.678Z,15.9
2022-12-23T00:57:08.951Z,15.9
2022-12-23T00:58:11.526Z,15.8
2022-12-23T00:59:14.092Z,15.9
2022-12-23T01:00:16.770Z,15.9
2022-12-23T01:01:19.431Z,16
2022-12-23T01:02:22.533Z,15.9
2022-12-23T01:03:25.913Z,16
2022-12-23T01:04:28.404Z,15.9
2022-12-23T01:05:30.677Z,16
2022-12-23T01:06:32.957Z,16
2022-12-23T01:07:35.499Z,15.9
2022-12-23T01:08:37.992Z,15.8
2022-12-23T01:09:39.947Z,16
2022-12-23T01:10:42.464Z,16
2022-12-23T01:11:44.969Z,16
2022-12-23T01:12:47.199Z,15.9
2022-12-23T01:13:49.408Z,15.8
2022-12-23T01:14:52.267Z,16
2022-12-23T01:15:54.904Z,16.1
2022-12-23T01:16:57.560Z,16
2022-12-23T01:18:00.460Z,16
2022-12-23T01:19:02.708Z,15.9
2022-12-23T01:20:05.269Z,16.1
2022-12-23T01:21:07.775Z,16.1
2022-12-23T01:22:10.356Z,16.1
2022-12-23T01:23:12.935Z,16
2022-12-23T01:24:14.919Z,15.9
2022-12-23T01:25:16.902Z,16.1
2022-12-23T01:26:19.168Z,15.8
2022-12-23T01:27:21.393Z,15.9
2022-12-23T01:28:23.911Z,16
2022-12-23T01:29:26.139Z,16
2022-12-23T01:30:28.692Z,16
2022-12-23T01:31:31.442Z,16.1
2022-12-23T01:32:33.989Z,16
2022-12-23T01:33:37.048Z,15.9
2022-12-23T01:34:39.581Z,16
2022-12-23T01:35:42.092Z,16
2022-12-23T01:36:44.357Z,16.1
2022-12-23T01:37:46.572Z,16.1
2022-12-23T01:38:49.085Z,15.9
2022-12-23T01:39:51.355Z,16
2022-12-23T01:40:53.301Z,16
2022-12-23T01:41:55.817Z,16
2022-12-23T01:42:58.332Z,15.9
2022-12-23T01:44:00.853Z,16.1
2022-12-23T01:45:02.876Z,16.2
2022-12-23T01:46:05.307Z,15.9
2022-12-23T01:47:08.158Z,15.9
2022-12-23T01:48:10.684Z,16.1
2022-12-23T01:49:12.661Z,16.1
2022-12-23T01:50:14.927Z,16.1
2022-12-23T01:51:17.167Z,16.1
2022-12-23T01:52:19.715Z,16
2022-12-23T01:53:21.661Z,16.1
2022-12-23T01:54:23.945Z,16
2022-12-23T01:55:26.461Z,16
2022-12-23T01:56:28.770Z,15.9
2022-12-23T01:57:31.333Z,16
2022-12-23T01:58:33.576Z,16.1
2022-12-23T01:59:36.089Z,16
2022-12-23T02:00:38.592Z,16
2022-12-23T02:01:41.405Z,16.1
2022-12-23T02:02:44.981Z,16
2022-12-23T02:03:48.039Z,16
2022-12-23T02:04:50.554Z,16.2
2022-12-23T02:05:53.044Z,16.1
2022-12-23T02:06:55.255Z,16
2022-12-23T02:07:57.509Z,16
2022-12-23T02:08:59.745Z,16
2022-12-23T02:10:02.034Z,16
2022-12-23T02:11:04.262Z,16.1
2022-12-23T02:12:06.529Z,16.1
2022-12-23T02:13:09.407Z,16.1
2022-12-23T02:14:11.909Z,16.1
2022-12-23T02:15:14.420Z,16
2022-12-23T02:16:17.137Z,16.1
2022-12-23T02:17:20.074Z,16.1
2022-12-23T02:18:22.681Z,16.1
2022-12-23T02:19:24.961Z,16.1
2022-12-23T02:20:27.202Z,16.1
2022-12-23T02:21:29.621Z,16
2022-12-23T02:22:32.615Z,16.1
2022-12-23T02:23:35.140Z,16.2
2022-12-23T02:24:37.364Z,16.2
2022-12-23T02:25:39.879Z,16.1
2022-12-23T02:26:42.111Z,16.1
2022-12-23T02:27:44.620Z,16.1
2022-12-23T02:28:47.150Z,16.1
2022-12-23T02:29:49.659Z,16.1
2022-12-23T02:30:52.014Z,16.2
2022-12-23T02:31:54.818Z,16.2
2022-12-23T02:32:57.387Z,16.1
2022-12-23T02:34:00.032Z,16.1
2022-12-23T02:35:02.531Z,16.1
2022-12-23T02:36:05.072Z,16
2022-12-23T02:37:07.595Z,16.1
2022-12-23T02:38:10.170Z,16
2022-12-23T02:39:12.140Z,16.1
2022-12-23T02:40:14.639Z,16.2
2022-12-23T02:41:17.158Z,16.1
2022-12-23T02:42:19.383Z,16.2
2022-12-23T02:43:21.925Z,16.1
2022-12-23T02:44:24.140Z,16.3
2022-12-23T02:45:26.655Z,16.2
2022-12-23T02:46:29.071Z,16.1
2022-12-23T02:47:32.026Z,16.1
2022-12-23T02:48:34.341Z,16.2
2022-12-23T02:49:36.937Z,16.2
2022-12-23T02:50:39.487Z,16.2
2022-12-23T02:51:42.024Z,16.2
2022-12-23T02:52:44.007Z,16.2
2022-12-23T02:53:46.312Z,16.2
2022-12-23T02:54:48.591Z,16.2
2022-12-23T02:55:50.851Z,16.1
2022-12-23T02:56:53.347Z,16.1
2022-12-23T02:57:55.601Z,16.1
2022-12-23T02:58:58.109Z,16.2
2022-12-23T03:00:00.741Z,16.2
2022-12-23T03:01:03.500Z,16.1
2022-12-23T03:02:06.321Z,16.2
2022-12-23T03:03:09.449Z,16.1
2022-12-23T03:04:12.463Z,16.3
2022-12-23T03:05:15.263Z,16.2
2022-12-23T03:06:17.769Z,16.2
2022-12-23T03:07:20.297Z,16.1
2022-12-23T03:08:22.567Z,16.2
2022-12-23T03:09:24.840Z,16.2
2022-12-23T03:10:27.103Z,16.2
2022-12-23T03:11:29.682Z,16.2
2022-12-23T03:12:32.296Z,16.1
2022-12-23T03:13:34.560Z,16.2
2022-12-23T03:14:37.078Z,16.1
2022-12-23T03:15:39.814Z,16.2
2022-12-23T03:16:42.536Z,16.2
2022-12-23T03:17:45.050Z,16.1
2022-12-23T03:18:47.579Z,16.2
2022-12-23T03:19:50.157Z,16.2
2022-12-23T03:20:53.028Z,16.1
2022-12-23T03:21:55.571Z,16.1
2022-12-23T03:22:58.081Z,16.1
2022-12-23T03:24:00.595Z,16.1
2022-12-23T03:25:02.547Z,16.2
2022-12-23T03:26:05.058Z,16.2
2022-12-23T03:27:07.564Z,16.2
2022-12-23T03:28:09.820Z,16.1
2022-12-23T03:29:12.342Z,16.2
2022-12-23T03:30:14.906Z,16.2
2022-12-23T03:31:17.325Z,16.2
2022-12-23T03:32:19.967Z,16.2
2022-12-23T03:33:22.498Z,16.3
2022-12-23T03:34:24.729Z,16.3
2022-12-23T03:35:27.003Z,16.2
2022-12-23T03:36:29.632Z,16.1
2022-12-23T03:37:31.898Z,16.2
2022-12-23T03:38:34.406Z,16.3
2022-12-23T03:39:36.987Z,16.2
2022-12-23T03:40:39.488Z,16.3
2022-12-23T03:41:41.716Z,16.2
2022-12-23T03:42:44.219Z,16.2
2022-12-23T03:45:56.781Z,16.1
2022-12-23T03:46:59.623Z,16.2
2022-12-23T03:48:01.844Z,16.2
2022-12-23T03:49:04.367Z,16.1
2022-12-23T03:50:06.954Z,16.2
2022-12-23T03:51:09.267Z,16.2
2022-12-23T03:53:16.861Z,16.2
2022-12-23T03:54:19.384Z,16.2
2022-12-23T03:55:21.885Z,16.2
2022-12-23T03:56:24.106Z,16.2
2022-12-23T03:57:26.608Z,16.2
2022-12-23T03:58:29.100Z,16.2
2022-12-23T03:59:31.344Z,16.2
2022-12-23T04:00:33.989Z,16.2
2022-12-23T04:01:36.411Z,16.2
2022-12-23T04:02:39.476Z,16.2
2022-12-23T04:03:42.894Z,16.2
2022-12-23T04:04:45.647Z,16.2
2022-12-23T04:05:48.093Z,16.2
2022-12-23T04:06:50.332Z,16.2
2022-12-23T04:07:52.958Z,16.2
2022-12-23T04:08:55.453Z,16.2
2022-12-23T04:09:57.994Z,16.2
2022-12-23T04:11:00.499Z,16.2
2022-12-23T04:12:03.012Z,16.1
2022-12-23T04:13:04.923Z,16.2
2022-12-23T04:14:07.439Z,16.2
2022-12-23T04:16:15.229Z,16.2
2022-12-23T04:17:18.183Z,16.2
2022-12-23T04:18:20.428Z,16.2
2022-12-23T04:19:22.963Z,16.2
2022-12-23T04:20:25.209Z,16.2
2022-12-23T04:21:27.737Z,16.2
2022-12-23T04:22:30.286Z,16.3
2022-12-23T04:23:32.945Z,16
2022-12-23T04:24:35.473Z,16.1
2022-12-23T04:25:37.708Z,16.1
2022-12-23T04:26:39.941Z,16.2
2022-12-23T04:27:42.464Z,16.2
2022-12-23T04:28:44.716Z,16.2
2022-12-23T04:29:46.966Z,16.2
2022-12-23T04:30:49.523Z,16.2
2022-12-23T04:31:51.868Z,16.1
2022-12-23T04:32:54.502Z,16.1
2022-12-23T04:33:56.724Z,16.2
2022-12-23T04:34:59.002Z,16.2
2022-12-23T04:36:01.533Z,16.1
2022-12-23T04:37:04.069Z,16.1
2022-12-23T04:38:06.615Z,16.1
2022-12-23T04:39:09.327Z,16.2
2022-12-23T04:40:11.876Z,16.2
2022-12-23T04:41:14.410Z,16.1
2022-12-23T04:42:16.635Z,16.2
2022-12-23T04:43:19.149Z,16.2
2022-12-23T04:44:21.697Z,16.1
2022-12-23T04:45:24.270Z,16.2
2022-12-23T04:46:26.869Z,16.1
2022-12-23T04:47:29.373Z,16.1
2022-12-23T04:48:31.865Z,16.1
2022-12-23T04:49:34.094Z,16.1
2022-12-23T04:50:36.600Z,16.1
2022-12-23T04:51:38.869Z,16.1
2022-12-23T04:52:41.150Z,16.2
2022-12-23T04:53:43.718Z,16.1
2022-12-23T04:54:47.127Z,16.1
2022-12-23T04:55:49.636Z,16.1
2022-12-23T04:56:52.017Z,16.1
2022-12-23T04:57:54.235Z,16.2
2022-12-23T04:58:56.752Z,16
2022-12-23T04:59:59.254Z,15.9
2022-12-23T05:01:01.855Z,16.1
2022-12-23T05:02:05.235Z,16.1
2022-12-23T05:03:08.590Z,16.1
2022-12-23T05:04:11.921Z,16.1
2022-12-23T05:05:14.473Z,16.1
2022-12-23T05:06:16.997Z,16.1
2022-12-23T05:07:19.251Z,16
2022-12-23T05:08:21.483Z,16
2022-12-23T05:09:24.019Z,16
2022-12-23T05:10:26.686Z,16.2
2022-12-23T05:11:29.268Z,16.1
2022-12-23T05:12:31.831Z,16.1
2022-12-23T05:13:33.777Z,16
2022-12-23T05:14:36.289Z,16
2022-12-23T05:15:53.264Z,16.1
2022-12-23T05:16:56.025Z,15.9
2022-12-23T05:18:02.074Z,16
2022-12-23T05:19:04.573Z,16.1
2022-12-23T05:20:07.073Z,16.1
2022-12-23T05:21:09.052Z,16.1
2022-12-23T05:22:11.598Z,16.1
2022-12-23T05:23:14.123Z,16.1
2022-12-23T05:24:16.663Z,16.1
2022-12-23T05:25:18.629Z,16.1
2022-12-23T05:26:21.303Z,16.1
2022-12-23T05:27:23.565Z,15.9
2022-12-23T05:28:26.086Z,16
2022-12-23T05:29:28.596Z,16
2022-12-23T05:30:30.834Z,16
2022-12-23T05:31:33.519Z,16
2022-12-23T05:32:36.031Z,16.1
2022-12-23T05:33:38.740Z,16
2022-12-23T05:34:41.551Z,16
2022-12-23T05:35:43.787Z,16
2022-12-23T05:36:46.301Z,15.9
2022-12-23T05:37:48.281Z,16
2022-12-23T05:38:50.814Z,16
2022-12-23T05:39:53.352Z,16.1
2022-12-23T05:40:55.916Z,16.1
2022-12-23T05:41:58.585Z,16
2022-12-23T05:43:01.201Z,16
2022-12-23T05:44:03.704Z,16
2022-12-23T05:45:06.221Z,16.1
2022-12-23T05:46:08.949Z,16
2022-12-23T05:47:11.261Z,16
2022-12-23T05:48:13.740Z,16
2022-12-23T05:49:16.006Z,15.9
2022-12-23T05:50:18.542Z,16.2
2022-12-23T05:51:21.166Z,16
2022-12-23T05:52:23.781Z,16
2022-12-23T05:53:26.316Z,16
2022-12-23T05:54:28.296Z,16
2022-12-23T05:55:30.821Z,15.9
2022-12-23T05:56:33.085Z,15.9
2022-12-23T05:57:36.678Z,16.1
2022-12-23T05:58:39.190Z,15.9
2022-12-23T05:59:42.378Z,15.9
2022-12-23T06:00:44.444Z,16
2022-12-23T06:01:47.150Z,16
2022-12-23T06:03:55.551Z,16
2022-12-23T06:04:58.560Z,16
2022-12-23T06:06:01.115Z,16.1
2022-12-23T06:07:03.080Z,16.1
2022-12-23T06:08:05.673Z,16
2022-12-23T06:09:08.191Z,16
2022-12-23T06:10:10.779Z,16.1
2022-12-23T06:11:13.376Z,16
2022-12-23T06:12:15.915Z,16
2022-12-23T06:13:18.651Z,15.9
2022-12-23T06:15:25.858Z,15.9
2022-12-23T06:16:28.190Z,15.9
2022-12-23T06:17:30.970Z,16
2022-12-23T06:18:33.548Z,16
2022-12-23T06:19:36.072Z,15.9
2022-12-23T06:20:38.572Z,15.9
2022-12-23T06:21:40.835Z,16
2022-12-23T06:22:43.435Z,15.9
2022-12-23T06:23:45.947Z,16.1
2022-12-23T06:24:48.483Z,16.1
2022-12-23T06:25:51.014Z,16
2022-12-23T06:27:58.242Z,16
2022-12-23T06:29:01.249Z,16
2022-12-23T06:30:03.486Z,15.9
2022-12-23T06:31:06.011Z,16
2022-12-23T06:32:08.657Z,16
2022-12-23T06:33:11.449Z,15.9
2022-12-23T06:34:13.988Z,15.9
2022-12-23T06:35:16.503Z,16.1
2022-12-23T06:36:19.094Z,15.9
2022-12-23T06:37:21.362Z,16
2022-12-23T06:38:23.905Z,15.9
2022-12-23T06:39:26.138Z,16
2022-12-23T06:40:28.702Z,15.9
2022-12-23T06:41:31.178Z,15.9
2022-12-23T06:42:33.698Z,16
2022-12-23T06:43:36.051Z,16
2022-12-23T06:44:38.674Z,16
2022-12-23T06:45:41.319Z,15.9
2022-12-23T06:46:43.965Z,15.9
2022-12-23T06:47:46.543Z,16
2022-12-23T06:48:48.552Z,15.8
2022-12-23T06:49:51.157Z,16
2022-12-23T06:50:53.432Z,15.9
2022-12-23T06:51:55.654Z,16
2022-12-23T06:52:57.883Z,15.8
2022-12-23T06:54:00.106Z,16.1
2022-12-23T06:55:02.641Z,15.9
2022-12-23T06:56:04.966Z,16
2022-12-23T06:57:07.478Z,15.9
2022-12-23T06:58:09.980Z,15.9
2022-12-23T06:59:12.517Z,16
2022-12-23T07:00:15.201Z,15.9
2022-12-23T07:01:17.979Z,16
2022-12-23T07:02:21.046Z,15.9
2022-12-23T07:03:24.114Z,15.9
2022-12-23T07:04:26.691Z,15.8
2022-12-23T07:06:34.313Z,15.9
2022-12-23T07:07:36.833Z,15.9
2022-12-23T07:08:39.086Z,15.9
2022-12-23T07:09:41.380Z,15.9
2022-12-23T07:10:43.369Z,16
2022-12-23T07:11:45.860Z,15.9
2022-12-23T07:13:53.110Z,15.8
2022-12-23T07:14:55.652Z,15.9
2022-12-23T07:15:58.374Z,15.8
2022-12-23T07:17:00.832Z,15.9
2022-12-23T07:18:03.733Z,15.9
2022-12-23T07:19:06.259Z,15.8
2022-12-23T07:20:08.550Z,15.9
2022-12-23T07:22:16.122Z,15.8
2022-12-23T07:23:18.378Z,15.8
2022-12-23T07:24:20.931Z,15.8
2022-12-23T07:25:23.444Z,15.9
2022-12-23T07:26:25.970Z,15.9
2022-12-23T07:27:28.551Z,15.8
2022-12-23T07:28:30.890Z,15.8
2022-12-23T07:29:33.167Z,15.8
2022-12-23T07:30:35.732Z,15.9
2022-12-23T07:32:43.355Z,16
2022-12-23T07:33:45.599Z,15.8
2022-12-23T07:34:48.099Z,16
2022-12-23T07:35:50.605Z,15.9
2022-12-23T07:36:52.849Z,15.8
2022-12-23T07:37:55.356Z,15.8
2022-12-23T07:38:57.602Z,15.9
2022-12-23T07:41:04.832Z,15.8
2022-12-23T07:43:12.384Z,15.9
2022-12-23T07:44:14.893Z,15.9
2022-12-23T07:45:17.405Z,15.8
2022-12-23T07:46:19.838Z,15.9
2022-12-23T07:47:22.829Z,15.9
2022-12-23T07:48:24.484Z,15.8
2022-12-23T07:49:26.714Z,15.8
2022-12-23T07:50:28.960Z,16
2022-12-23T07:51:31.519Z,15.8
2022-12-23T07:52:33.504Z,15.8
2022-12-23T07:53:35.806Z,15.8
2022-12-23T07:54:38.059Z,15.9
2022-12-23T07:55:40.600Z,15.9
2022-12-23T07:56:42.822Z,15.9
2022-12-23T07:57:44.764Z,15.8
2022-12-23T07:58:47.803Z,15.9
2022-12-23T07:59:50.017Z,16
2022-12-23T08:00:52.018Z,15.8
2022-12-23T08:01:54.359Z,15.9
2022-12-23T08:02:58.299Z,15.8
2022-12-23T08:04:01.529Z,15.9
2022-12-23T08:05:03.946Z,15.9
2022-12-23T08:06:06.758Z,15.9
2022-12-23T08:07:09.014Z,15.9
2022-12-23T08:08:11.236Z,15.9
2022-12-23T08:09:13.480Z,15.7
2022-12-23T08:10:15.444Z,15.9
2022-12-23T08:11:17.954Z,15.9
2022-12-23T08:12:20.482Z,15.9
2022-12-23T08:13:22.979Z,15.9
2022-12-23T08:14:25.227Z,15.8
2022-12-23T08:15:27.737Z,15.9
2022-12-23T08:16:30.217Z,15.8
2022-12-23T08:17:37.321Z,15.9
2022-12-23T08:18:39.965Z,15.9
2022-12-23T08:19:42.484Z,15.8
2022-12-23T08:20:45.022Z,15.9
2022-12-23T08:21:46.967Z,15.9
2022-12-23T08:22:49.507Z,16
2022-12-23T08:23:52.056Z,15.8
2022-12-23T08:24:54.289Z,15.9
2022-12-23T08:25:56.818Z,15.9
2022-12-23T08:26:59.318Z,15.9
2022-12-23T08:28:01.857Z,15.9
2022-12-23T08:29:03.807Z,15.8
2022-12-23T08:30:06.331Z,15.8
2022-12-23T08:31:09.006Z,15.9
2022-12-23T08:32:11.954Z,15.8
2022-12-23T08:33:14.498Z,15.9
2022-12-23T08:34:17.190Z,15.9
2022-12-23T08:35:19.162Z,15.9
2022-12-23T08:37:26.417Z,15.8
2022-12-23T08:38:28.674Z,15.8
2022-12-23T08:39:31.196Z,16
2022-12-23T08:40:33.195Z,15.9
2022-12-23T08:41:35.452Z,15.8
2022-12-23T08:42:38.233Z,15.9
2022-12-23T08:43:40.741Z,15.8
2022-12-23T08:44:43.001Z,15.9
2022-12-23T08:45:45.669Z,15.9
2022-12-23T08:46:48.648Z,15.8
2022-12-23T08:47:51.275Z,15.8
2022-12-23T08:48:53.822Z,15.8
2022-12-23T08:49:56.622Z,16
2022-12-23T08:50:59.112Z,15.8
2022-12-23T08:52:01.635Z,15.9
2022-12-23T08:53:04.147Z,15.8
2022-12-23T08:54:06.686Z,15.8
2022-12-23T08:55:09.195Z,15.9
2022-12-23T08:56:11.755Z,15.8
2022-12-23T08:57:14.295Z,15.8
2022-12-23T08:58:16.608Z,15.9
2022-12-23T08:59:20.438Z,15.8
2022-12-23T09:00:23.035Z,15.9
2022-12-23T09:01:26.017Z,15.9
2022-12-23T09:02:29.813Z,15.9
2022-12-23T09:03:32.904Z,16.1
2022-12-23T09:04:36.101Z,15.8
2022-12-23T09:05:38.739Z,15.8
2022-12-23T09:06:41.258Z,15.9
2022-12-23T09:07:43.510Z,15.8
2022-12-23T09:08:46.026Z,15.9
2022-12-23T09:09:48.532Z,15.8
2022-12-23T09:10:50.260Z,15.9
2022-12-23T09:11:52.519Z,15.8
2022-12-23T09:14:00.045Z,15.8
2022-12-23T09:15:02.592Z,16
2022-12-23T09:16:05.037Z,15.9
2022-12-23T09:17:07.579Z,15.9
2022-12-23T09:18:10.139Z,15.9
2022-12-23T09:19:12.711Z,15.9
2022-12-23T09:20:15.345Z,15.8
2022-12-23T09:21:18.095Z,15.8
2022-12-23T09:22:20.692Z,15.9
2022-12-23T09:23:23.245Z,15.8
2022-12-23T09:24:25.241Z,15.9
2022-12-23T09:25:27.787Z,15.8
2022-12-23T09:26:30.345Z,15.9
2022-12-23T09:27:32.638Z,16
2022-12-23T09:28:35.205Z,15.8
2022-12-23T09:29:37.715Z,16
2022-12-23T09:30:40.249Z,15.9
2022-12-23T09:31:42.387Z,15.9
2022-12-23T09:32:45.273Z,15.8
2022-12-23T09:33:47.240Z,15.9
2022-12-23T09:34:49.781Z,15.9
2022-12-23T09:35:52.091Z,15.8
2022-12-23T09:36:56.195Z,15.8
2022-12-23T09:37:58.718Z,15.9
2022-12-23T09:39:01.312Z,16
2022-12-23T09:40:03.527Z,15.8
2022-12-23T09:41:05.767Z,15.9
2022-12-23T09:42:08.020Z,15.8
2022-12-23T09:43:10.036Z,15.9
2022-12-23T09:44:12.269Z,15.9
2022-12-23T09:45:14.622Z,15.9
2022-12-23T09:46:17.353Z,15.8
2022-12-23T09:47:20.216Z,15.9
2022-12-23T09:48:22.760Z,15.9
2022-12-23T09:49:25.307Z,15.8
2022-12-23T09:50:27.067Z,15.8
2022-12-23T09:51:29.351Z,15.8
2022-12-23T09:52:31.995Z,15.9
2022-12-23T09:53:34.524Z,15.9
2022-12-23T09:54:37.058Z,15.9
2022-12-23T09:55:39.565Z,15.8
2022-12-23T09:56:42.884Z,15.9
2022-12-23T09:57:45.101Z,15.9
2022-12-23T09:58:47.334Z,15.9
2022-12-23T09:59:49.849Z,15.8
2022-12-23T10:00:52.376Z,15.9
2022-12-23T10:01:54.891Z,15.8
2022-12-23T10:02:58.591Z,15.8
2022-12-23T10:04:02.644Z,15.9
2022-12-23T10:05:05.365Z,15.8
2022-12-23T10:06:07.889Z,15.8
2022-12-23T10:07:10.477Z,15.9
2022-12-23T10:08:13.125Z,15.8
2022-12-23T10:09:15.769Z,15.8
2022-12-23T10:10:17.997Z,15.9
2022-12-23T10:11:20.715Z,15.8
2022-12-23T10:13:28.245Z,15.8
2022-12-23T10:14:30.860Z,15.8
2022-12-23T10:15:33.411Z,15.8
2022-12-23T10:16:35.312Z,15.9
2022-12-23T10:17:38.195Z,15.9
2022-12-23T10:18:40.688Z,15.8
2022-12-23T10:19:42.948Z,15.9
2022-12-23T10:20:45.484Z,15.8
2022-12-23T10:21:48.491Z,15.8
2022-12-23T10:22:50.745Z,15.8
2022-12-23T10:23:53.399Z,15.9
2022-12-23T10:24:55.912Z,15.9
2022-12-23T10:25:58.455Z,15.8
2022-12-23T10:27:00.675Z,15.8
2022-12-23T10:28:03.198Z,15.9
2022-12-23T10:29:05.710Z,15.9
2022-12-23T10:32:18.021Z,15.8
2022-12-23T10:33:20.561Z,15.9
2022-12-23T10:34:23.081Z,15.9
2022-12-23T10:35:25.596Z,15.9
2022-12-23T10:36:27.882Z,15.9
2022-12-23T10:37:30.474Z,15.9
2022-12-23T10:38:32.770Z,16
2022-12-23T10:39:35.463Z,15.9
2022-12-23T10:40:38.022Z,15.8
2022-12-23T10:41:40.286Z,15.8
2022-12-23T10:42:42.830Z,15.9
2022-12-23T10:43:45.128Z,15.9
2022-12-23T10:44:47.685Z,16
2022-12-23T10:45:50.530Z,15.9
2022-12-23T10:46:53.193Z,15.9
2022-12-23T10:47:55.741Z,15.9
2022-12-23T10:48:57.998Z,15.9
2022-12-23T10:50:00.650Z,15.9
2022-12-23T10:51:03.012Z,15.8
2022-12-23T10:52:05.291Z,15.8
2022-12-23T10:53:07.584Z,15.9
2022-12-23T10:54:10.140Z,15.9
2022-12-23T10:55:12.838Z,15.9
2022-12-23T10:56:14.915Z,15.8
2022-12-23T10:57:17.436Z,15.9
2022-12-23T10:58:19.951Z,15.9
2022-12-23T10:59:22.468Z,16
2022-12-23T11:00:24.707Z,15.8
2022-12-23T11:01:28.276Z,15.9
2022-12-23T11:02:31.955Z,15.9
2022-12-23T11:03:35.118Z,15.9
2022-12-23T11:04:38.875Z,15.8
2022-12-23T11:05:41.760Z,16
2022-12-23T11:06:44.273Z,15.9
2022-12-23T11:07:47.272Z,15.9
2022-12-23T11:08:49.938Z,15.8
2022-12-23T11:09:53.621Z,15.8
2022-12-23T11:10:56.252Z,15.9
2022-12-23T11:11:58.493Z,15.8
2022-12-23T11:13:00.787Z,15.9
2022-12-23T11:14:03.321Z,15.8
2022-12-23T11:15:05.852Z,15.8
2022-12-23T11:16:08.466Z,15.9
2022-12-23T11:17:10.956Z,15.9
2022-12-23T11:18:13.239Z,15.9
2022-12-23T11:19:15.898Z,15.9
2022-12-23T11:20:18.443Z,15.8
2022-12-23T11:21:20.727Z,15.8
2022-12-23T11:22:23.304Z,15.9
2022-12-23T11:23:25.556Z,15.8
2022-12-23T11:24:28.147Z,16
2022-12-23T11:25:30.702Z,15.9
2022-12-23T11:26:33.432Z,15.9
2022-12-23T11:27:35.638Z,15.9
2022-12-23T11:28:39.222Z,15.8
2022-12-23T11:29:41.801Z,15.9
2022-12-23T11:30:44.816Z,15.9
2022-12-23T11:31:49.957Z,15.8
2022-12-23T11:32:52.775Z,16
2022-12-23T11:33:55.318Z,15.8
2022-12-23T11:34:57.697Z,15.9
2022-12-23T11:36:00.518Z,16
2022-12-23T11:38:07.466Z,15.9
2022-12-23T11:39:10.041Z,16
2022-12-23T11:40:12.358Z,15.9
2022-12-23T11:41:14.796Z,15.9
2022-12-23T11:42:17.475Z,16
2022-12-23T11:43:19.701Z,15.9
2022-12-23T11:44:22.240Z,15.8
2022-12-23T11:45:24.339Z,15.8
2022-12-23T11:46:27.088Z,15.9
2022-12-23T11:47:30.137Z,15.8
2022-12-23T11:48:32.733Z,15.8
2022-12-23T11:49:35.267Z,15.9
2022-12-23T11:50:38.334Z,15.9
2022-12-23T11:51:41.667Z,15.9
2022-12-23T11:52:43.942Z,15.9
2022-12-23T11:53:45.883Z,15.8
2022-12-23T11:55:54.080Z,15.9
2022-12-23T11:56:56.595Z,16
2022-12-23T11:57:59.546Z,15.9
2022-12-23T11:59:01.822Z,15.9
2022-12-23T12:00:04.340Z,15.8
2022-12-23T12:01:06.580Z,16.1
2022-12-23T12:02:08.969Z,15.8
2022-12-23T12:03:11.902Z,15.8
2022-12-23T12:04:14.610Z,16
2022-12-23T12:05:17.121Z,15.8
2022-12-23T12:06:19.679Z,15.9
2022-12-23T12:07:22.225Z,15.9
2022-12-23T12:08:24.457Z,16
2022-12-23T12:09:26.714Z,15.9
2022-12-23T12:10:29.320Z,15.9
2022-12-23T12:11:31.578Z,15.9
2022-12-23T12:12:33.863Z,15.8
2022-12-23T12:13:37.246Z,15.9
2022-12-23T12:14:39.563Z,15.9
2022-12-23T12:15:42.947Z,15.9
2022-12-23T12:16:45.731Z,15.9
2022-12-23T12:17:49.819Z,16
2022-12-23T12:19:57.304Z,16
2022-12-23T12:20:59.824Z,15.9
2022-12-23T12:22:02.353Z,15.9
2022-12-23T12:23:04.643Z,15.9
2022-12-23T12:25:11.885Z,15.9
2022-12-23T12:26:14.464Z,15.9
2022-12-23T12:27:16.146Z,15.8
2022-12-23T12:28:18.398Z,15.8
2022-12-23T12:29:21.038Z,15.9
2022-12-23T12:30:23.674Z,15.9
2022-12-23T12:31:26.700Z,15.8
2022-12-23T12:32:29.403Z,15.9
2022-12-23T12:33:31.385Z,15.9
2022-12-23T12:34:33.660Z,15.9
2022-12-23T12:35:36.182Z,15.8
2022-12-23T12:36:38.799Z,16
2022-12-23T12:37:41.940Z,15.9
2022-12-23T12:38:44.178Z,15.8
2022-12-23T12:39:46.518Z,15.8
2022-12-23T12:40:48.729Z,15.8
2022-12-23T12:41:50.967Z,15.9
2022-12-23T12:42:54.425Z,15.9
2022-12-23T12:43:56.975Z,15.9
2022-12-23T12:44:59.592Z,15.9
2022-12-23T12:46:02.459Z,16
2022-12-23T12:49:15.237Z,15.8
2022-12-23T12:50:17.742Z,15.9
2022-12-23T12:51:20.279Z,15.9
2022-12-23T12:52:22.805Z,15.9
2022-12-23T12:53:25.576Z,15.9
2022-12-23T12:54:28.236Z,16
2022-12-23T12:55:30.477Z,15.8
2022-12-23T12:56:32.995Z,15.9
2022-12-23T12:57:35.590Z,15.9
2022-12-23T12:58:38.109Z,15.8
2022-12-23T12:59:40.708Z,15.9
2022-12-23T13:00:44.056Z,15.8
2022-12-23T13:01:46.156Z,16
2022-12-23T13:02:48.919Z,15.9
2022-12-23T13:03:51.743Z,15.9
2022-12-23T13:04:54.302Z,15.9
2022-12-23T13:05:56.562Z,15.9
2022-12-23T13:06:58.785Z,16
2022-12-23T13:08:01.359Z,15.8
2022-12-23T13:09:03.630Z,16
2022-12-23T13:10:06.147Z,16
2022-12-23T13:11:08.581Z,15.8
2022-12-23T13:12:10.868Z,15.8
2022-12-23T13:13:13.375Z,16
2022-12-23T13:14:15.925Z,15.9
2022-12-23T13:15:17.937Z,15.8
2022-12-23T13:16:20.695Z,15.9
2022-12-23T13:17:23.472Z,16
2022-12-23T13:18:26.112Z,16
2022-12-23T13:19:28.610Z,15.9
2022-12-23T13:20:30.322Z,15.9
2022-12-23T13:21:32.863Z,15.9
2022-12-23T13:22:35.407Z,16
2022-12-23T13:24:42.903Z,15.9
2022-12-23T13:25:45.492Z,15.8
2022-12-23T13:26:48.850Z,16
2022-12-23T13:27:51.156Z,15.9
2022-12-23T13:28:53.564Z,15.9
2022-12-23T13:31:01.070Z,15.8
2022-12-23T13:32:04.203Z,15.8
2022-12-23T13:33:06.284Z,15.9
2022-12-23T13:34:08.787Z,15.8
2022-12-23T13:35:10.765Z,15.9
2022-12-23T13:36:12.848Z,16
2022-12-23T13:37:15.549Z,15.9
2022-12-23T13:38:18.136Z,15.9
2022-12-23T13:39:20.772Z,15.8
2022-12-23T13:40:23.048Z,15.8
2022-12-23T13:41:25.559Z,15.9
2022-12-23T13:42:28.062Z,15.9
2022-12-23T13:43:30.349Z,15.9
2022-12-23T13:44:32.576Z,15.9
2022-12-23T13:45:34.841Z,15.9
2022-12-23T13:46:38.533Z,15.9
2022-12-23T13:47:41.577Z,15.8
2022-12-23T13:48:44.100Z,15.8
2022-12-23T13:49:46.721Z,15.9
2022-12-23T13:50:49.245Z,15.9
2022-12-23T13:51:51.800Z,15.9
2022-12-23T13:52:54.032Z,15.8
2022-12-23T13:55:01.013Z,15.9
2022-12-23T13:56:03.290Z,15.9
2022-12-23T13:57:05.556Z,15.8
2022-12-23T13:58:08.069Z,15.8
2022-12-23T13:59:10.327Z,15.9
2022-12-23T14:00:12.876Z,16.1
2022-12-23T14:01:15.288Z,15.9
2022-12-23T14:02:18.108Z,15.9
2022-12-23T14:03:20.926Z,15.9
2022-12-23T14:04:23.679Z,15.9
2022-12-23T14:05:26.333Z,15.9
2022-12-23T14:06:28.849Z,15.8
2022-12-23T14:07:30.802Z,15.9
2022-12-23T14:08:32.755Z,15.9
2022-12-23T14:09:35.001Z,15.8
2022-12-23T14:10:37.344Z,15.9
2022-12-23T14:11:39.932Z,15.9
2022-12-23T14:12:43.473Z,15.9
2022-12-23T14:13:46.095Z,16
2022-12-23T14:14:48.677Z,15.9
2022-12-23T14:15:51.008Z,15.8
2022-12-23T14:16:54.300Z,15.9
2022-12-23T14:19:01.866Z,15.9
2022-12-23T14:20:04.236Z,15.9
2022-12-23T14:21:07.019Z,15.9
2022-12-23T14:22:09.572Z,15.9
2022-12-23T14:23:11.812Z,15.8
2022-12-23T14:24:14.345Z,16
2022-12-23T14:25:16.309Z,15.8
2022-12-23T14:26:18.586Z,15.8
2022-12-23T14:27:20.829Z,15.9
2022-12-23T14:28:22.846Z,15.9
2022-12-23T14:29:25.088Z,15.9
2022-12-23T14:30:27.608Z,15.8
2022-12-23T14:31:30.377Z,15.9
2022-12-23T14:32:32.939Z,15.9